Terminal Aerodrome Forecast
Issued by NWS

Home | Current Version | Previous Version | Text Only | Print | Product List | Glossary On
Versions: 1 2 3 4 5 6 7 8 9 10 11 12 13
788
FTUS43 KPAH 292340
TAFCGI
TAF
KCGI 292340Z 3000/3024 19006KT P6SM BKN120
     FM300700 27004KT P6SM FEW120
     FM301000 29005KT P6SM SCT150
     FM301700 26012G19KT P6SM SCT040=

USA.gov is the U.S. government's official web portal to all federal, state and local government web resources and services.